PWSweather.com
Personal Weather Stations
Station Observations
KV9EWX
Winnebago, Il, Winnebago, IL 61088

Winnebago, IlWinnebago, IL 61088

Lat: 42.261175, Lon: -89.236369

Elevation: 892

Station Type: Lacrosse ws-2811

Latest ConditionsUpdated 1:13:32 PM CDT Tuesday, Apr 28, 2015
Currently Today's Max Today's Min Today's Average
Temperature 67.2°F19.6°C 67.2°F19.6°C 31.8°F-0.1°C 45.7°F7.6°C
Dew Point 42.6°F5.9°C 44.3°F6.8°C 27.2°F-2.7°C 34.5°F1.4°C
Winds 2.5 mph N4.0 kmh N 9.1 mph N14.6 kmh N - 1.1 mph 1.8 kmh
Wind Gusts 11.7 mph18.8 kmh 15.6 mph25.1 kmh - -
Humidity 41% 87% 40% 68%
Pressure 29.68 in1005.1 mb 29.76 in1007.8 mb 29.68 in1005.1 mb -
Hour Temp Dew Point Humidity Winds Wind Gusts Pressure Precip Precip Rate Daily Precip Total
01:13 PM 67.2°F19.6°C 42.6°F5.9°C 41% 2.5 mph N4.0 kmh N 11.7 mph18.8 kmh 29.68 in1005.1 mb 0.00 in0.0 mm 0.00 in0.0 mm 0.00 in0.0 mm
01:08 PM 67.0°F19.4°C 43.1°F6.2°C 42% 2.9 mph NNW4.7 kmh NNW 15.2 mph24.5 kmh 29.68 in1005.1 mb 0.00 in0.0 mm 0.00 in0.0 mm 0.00 in0.0 mm
01:03 PM 66.5°F19.2°C 41.3°F5.2°C 40% 5.2 mph N8.4 kmh N 15.2 mph24.5 kmh 29.69 in1005.4 mb 0.00 in0.0 mm 0.00 in0.0 mm 0.00 in0.0 mm
12:58 PM 66.7°F19.3°C 41.5°F5.3°C 40% 9.1 mph N14.6 kmh N 15.2 mph24.5 kmh 29.69 in1005.4 mb 0.00 in0.0 mm 0.00 in0.0 mm 0.00 in0.0 mm
12:53 PM 66.7°F19.3°C 44.1°F6.7°C 44% 4.6 mph NNE7.4 kmh NNE 9.4 mph15.1 kmh 29.69 in1005.4 mb 0.00 in0.0 mm 0.00 in0.0 mm 0.00 in0.0 mm
12:48 PM 66.3°F19.1°C 43.1°F6.2°C 43% 0.7 mph NNW1.1 kmh NNW 15.6 mph25.1 kmh 29.69 in1005.4 mb 0.00 in0.0 mm 0.00 in0.0 mm 0.00 in0.0 mm
12:43 PM 66.0°F18.9°C 42.1°F5.6°C 42% 7.6 mph NNW12.2 kmh NNW 15.6 mph25.1 kmh 29.69 in1005.4 mb 0.00 in0.0 mm 0.00 in0.0 mm 0.00 in0.0 mm
12:38 PM 66.3°F19.1°C 44.3°F6.8°C 45% 5.5 mph N8.9 kmh N 13.3 mph21.4 kmh 29.70 in1005.8 mb 0.00 in0.0 mm 0.00 in0.0 mm 0.00 in0.0 mm
12:33 PM 65.9°F18.8°C 43.3°F6.3°C 44% 1.4 mph NNW2.3 kmh NNW 10.5 mph16.9 kmh 29.70 in1005.8 mb 0.00 in0.0 mm 0.00 in0.0 mm 0.00 in0.0 mm
12:28 PM 65.9°F18.8°C 42.0°F5.6°C 42% 4.3 mph NE6.9 kmh NE 10.5 mph16.9 kmh 29.70 in1005.8 mb 0.00 in0.0 mm 0.00 in0.0 mm 0.00 in0.0 mm
12:23 PM 65.5°F18.6°C 42.9°F6.1°C 44% 1.2 mph N1.9 kmh N 9.8 mph15.8 kmh 29.70 in1005.8 mb 0.00 in0.0 mm 0.00 in0.0 mm 0.00 in0.0 mm
12:18 PM 65.0°F18.3°C 42.5°F5.8°C 44% 1.3 mph NNW2.1 kmh NNW 3.9 mph6.3 kmh 29.70 in1005.8 mb 0.00 in0.0 mm 0.00 in0.0 mm 0.00 in0.0 mm
12:13 PM 64.6°F18.1°C 42.7°F5.9°C 45% 3.1 mph E5.0 kmh E 9.8 mph15.8 kmh 29.70 in1005.8 mb 0.00 in0.0 mm 0.00 in0.0 mm 0.00 in0.0 mm
12:08 PM 64.4°F18.0°C 42.5°F5.8°C 45% 4.3 mph E6.9 kmh E 9.8 mph15.8 kmh 29.71 in1006.1 mb 0.00 in0.0 mm 0.00 in0.0 mm 0.00 in0.0 mm
12:03 PM 64.6°F18.1°C 42.7°F5.9°C 45% 2.3 mph NNW3.7 kmh NNW 9.4 mph15.1 kmh 29.71 in1006.1 mb 0.00 in0.0 mm 0.00 in0.0 mm 0.00 in0.0 mm
11:58 AM 64.2°F17.9°C 43.0°F6.1°C 46% 5.5 mph NNE8.9 kmh NNE 9.4 mph15.1 kmh 29.71 in1006.1 mb 0.00 in0.0 mm 0.00 in0.0 mm 0.00 in0.0 mm
11:53 AM 64.1°F17.8°C 42.3°F5.7°C 45% 1.0 mph N1.6 kmh N 8.6 mph13.8 kmh 29.71 in1006.1 mb 0.00 in0.0 mm 0.00 in0.0 mm 0.00 in0.0 mm
11:48 AM 64.8°F18.2°C 42.3°F5.7°C 44% 2.6 mph NE4.2 kmh NE 8.9 mph14.3 kmh 29.71 in1006.1 mb 0.00 in0.0 mm 0.00 in0.0 mm 0.00 in0.0 mm
11:43 AM 65.3°F18.5°C 43.3°F6.3°C 45% 4.5 mph NNE7.2 kmh NNE 8.9 mph14.3 kmh 29.71 in1006.1 mb 0.00 in0.0 mm 0.00 in0.0 mm 0.00 in0.0 mm
11:38 AM 65.1°F18.4°C 43.2°F6.2°C 45% 1.7 mph NE2.7 kmh NE 5.1 mph8.2 kmh 29.71 in1006.1 mb 0.00 in0.0 mm 0.00 in0.0 mm 0.00 in0.0 mm
11:33 AM 64.6°F18.1°C 42.1°F5.6°C 44% 1.6 mph W2.6 kmh W 6.7 mph10.8 kmh 29.72 in1006.4 mb 0.00 in0.0 mm 0.00 in0.0 mm 0.00 in0.0 mm
11:28 AM 65.1°F18.4°C 41.9°F5.5°C 43% 2.6 mph NNW4.2 kmh NNW 6.7 mph10.8 kmh 29.72 in1006.4 mb 0.00 in0.0 mm 0.00 in0.0 mm 0.00 in0.0 mm
11:23 AM 65.0°F18.3°C 41.9°F5.5°C 43% 2.2 mph N3.5 kmh N 6.7 mph10.8 kmh 29.72 in1006.4 mb 0.00 in0.0 mm 0.00 in0.0 mm 0.00 in0.0 mm
11:18 AM 64.6°F18.1°C 41.5°F5.3°C 43% 2.1 mph SE3.4 kmh SE 6.7 mph10.8 kmh 29.72 in1006.4 mb 0.00 in0.0 mm 0.00 in0.0 mm 0.00 in0.0 mm
11:13 AM 65.0°F18.3°C 41.9°F5.5°C 43% 1.7 mph N2.7 kmh N 6.0 mph9.7 kmh 29.73 in1006.8 mb 0.00 in0.0 mm 0.00 in0.0 mm 0.00 in0.0 mm
11:08 AM 64.4°F18.0°C 41.9°F5.5°C 44% 0.5 mph SSE0.8 kmh SSE 5.4 mph8.7 kmh 29.73 in1006.8 mb 0.00 in0.0 mm 0.00 in0.0 mm 0.00 in0.0 mm
11:03 AM 64.2°F17.9°C 42.4°F5.8°C 45% 1.7 mph NE2.7 kmh NE 5.4 mph8.7 kmh 29.73 in1006.8 mb 0.00 in0.0 mm 0.00 in0.0 mm 0.00 in0.0 mm
10:58 AM 64.6°F18.1°C 42.7°F5.9°C 45% 2.0 mph ESE3.2 kmh ESE 6.3 mph10.1 kmh 29.73 in1006.8 mb 0.00 in0.0 mm 0.00 in0.0 mm 0.00 in0.0 mm
10:53 AM 64.1°F17.8°C 42.3°F5.7°C 45% 3.3 mph NNE5.3 kmh NNE 8.2 mph13.2 kmh 29.73 in1006.8 mb 0.00 in0.0 mm 0.00 in0.0 mm 0.00 in0.0 mm
10:48 AM 63.9°F17.7°C 42.1°F5.6°C 45% 4.0 mph N6.4 kmh N 8.2 mph13.2 kmh 29.73 in1006.8 mb 0.00 in0.0 mm 0.00 in0.0 mm 0.00 in0.0 mm
10:43 AM 63.7°F17.6°C 41.9°F5.5°C 45% 2.9 mph E4.7 kmh E 9.8 mph15.8 kmh 29.73 in1006.8 mb 0.00 in0.0 mm 0.00 in0.0 mm 0.00 in0.0 mm
10:38 AM 63.9°F17.7°C 42.1°F5.6°C 45% 0.9 mph NE1.4 kmh NE 9.8 mph15.8 kmh 29.73 in1006.8 mb 0.00 in0.0 mm 0.00 in0.0 mm 0.00 in0.0 mm
10:33 AM 64.1°F17.8°C 42.9°F6.1°C 46% 2.1 mph NW3.4 kmh NW 9.4 mph15.1 kmh 29.73 in1006.8 mb 0.00 in0.0 mm 0.00 in0.0 mm 0.00 in0.0 mm
10:28 AM 63.9°F17.7°C 41.5°F5.3°C 44% 3.1 mph N5.0 kmh N 9.4 mph15.1 kmh 29.74 in1007.1 mb 0.00 in0.0 mm 0.00 in0.0 mm 0.00 in0.0 mm
10:23 AM 63.7°F17.6°C 42.5°F5.8°C 46% 0.6 mph N1.0 kmh N 4.7 mph7.6 kmh 29.74 in1007.1 mb 0.00 in0.0 mm 0.00 in0.0 mm 0.00 in0.0 mm
10:18 AM 63.2°F17.3°C 42.6°F5.9°C 47% 2.8 mph N4.5 kmh N 5.4 mph8.7 kmh 29.74 in1007.1 mb 0.00 in0.0 mm 0.00 in0.0 mm 0.00 in0.0 mm
10:13 AM 62.5°F16.9°C 42.5°F5.8°C 48% 1.9 mph NW3.1 kmh NW 5.4 mph8.7 kmh 29.74 in1007.1 mb 0.00 in0.0 mm 0.00 in0.0 mm 0.00 in0.0 mm
10:08 AM 62.4°F16.9°C 41.3°F5.2°C 46% 2.9 mph NE4.7 kmh NE 6.3 mph10.1 kmh 29.74 in1007.1 mb 0.00 in0.0 mm 0.00 in0.0 mm 0.00 in0.0 mm
10:03 AM 62.2°F16.8°C 42.2°F5.7°C 48% 0.8 mph ENE1.3 kmh ENE 6.7 mph10.8 kmh 29.74 in1007.1 mb 0.00 in0.0 mm 0.00 in0.0 mm 0.00 in0.0 mm
09:58 AM 61.8°F16.6°C 41.9°F5.5°C 48% 1.9 mph NE3.1 kmh NE 6.7 mph10.8 kmh 29.74 in1007.1 mb 0.00 in0.0 mm 0.00 in0.0 mm 0.00 in0.0 mm
09:53 AM 62.0°F16.7°C 42.6°F5.9°C 49% 3.0 mph NE4.8 kmh NE 6.7 mph10.8 kmh 29.74 in1007.1 mb 0.00 in0.0 mm 0.00 in0.0 mm 0.00 in0.0 mm
09:48 AM 62.4°F16.9°C 43.0°F6.1°C 49% 1.6 mph N2.6 kmh N 3.5 mph5.6 kmh 29.74 in1007.1 mb 0.00 in0.0 mm 0.00 in0.0 mm 0.00 in0.0 mm
09:43 AM 61.8°F16.6°C 43.0°F6.1°C 50% 1.1 mph SE1.8 kmh SE 7.9 mph12.7 kmh 29.75 in1007.5 mb 0.00 in0.0 mm 0.00 in0.0 mm 0.00 in0.0 mm
09:38 AM 61.1°F16.2°C 42.3°F5.7°C 50% 2.3 mph NE3.7 kmh NE 7.9 mph12.7 kmh 29.75 in1007.5 mb 0.00 in0.0 mm 0.00 in0.0 mm 0.00 in0.0 mm
09:33 AM 60.9°F16.1°C 43.2°F6.2°C 52% 1.7 mph NE2.7 kmh NE 4.4 mph7.1 kmh 29.75 in1007.5 mb 0.00 in0.0 mm 0.00 in0.0 mm 0.00 in0.0 mm
09:28 AM 59.8°F15.4°C 42.2°F5.7°C 52% 1.0 mph N1.6 kmh N 7.9 mph12.7 kmh 29.75 in1007.5 mb 0.00 in0.0 mm 0.00 in0.0 mm 0.00 in0.0 mm
09:23 AM 59.6°F15.3°C 41.9°F5.5°C 52% 2.1 mph NE3.4 kmh NE 7.9 mph12.7 kmh 29.75 in1007.5 mb 0.00 in0.0 mm 0.00 in0.0 mm 0.00 in0.0 mm
09:18 AM 59.6°F15.3°C 41.9°F5.5°C 52% 1.3 mph NE2.1 kmh NE 4.4 mph7.1 kmh 29.75 in1007.5 mb 0.00 in0.0 mm 0.00 in0.0 mm 0.00 in0.0 mm
09:13 AM 59.4°F15.2°C 41.8°F5.4°C 52% 1.5 mph ENE2.4 kmh ENE 4.4 mph7.1 kmh 29.75 in1007.5 mb 0.00 in0.0 mm 0.00 in0.0 mm 0.00 in0.0 mm
09:08 AM 58.9°F14.9°C 41.8°F5.4°C 53% 0.8 mph SSE1.3 kmh SSE 7.0 mph11.3 kmh 29.76 in1007.8 mb 0.00 in0.0 mm 0.00 in0.0 mm 0.00 in0.0 mm
09:03 AM 57.8°F14.3°C 42.3°F5.7°C 56% 1.5 mph NW2.4 kmh NW 7.0 mph11.3 kmh 29.76 in1007.8 mb 0.00 in0.0 mm 0.00 in0.0 mm 0.00 in0.0 mm
08:58 AM 58.0°F14.4°C 42.0°F5.6°C 55% 5.3 mph NE8.5 kmh NE 7.0 mph11.3 kmh 29.76 in1007.8 mb 0.00 in0.0 mm 0.00 in0.0 mm 0.00 in0.0 mm
08:53 AM 57.8°F14.3°C 43.2°F6.2°C 58% 1.6 mph ENE2.6 kmh ENE 4.7 mph7.6 kmh 29.76 in1007.8 mb 0.00 in0.0 mm 0.00 in0.0 mm 0.00 in0.0 mm
08:48 AM 57.1°F13.9°C 42.6°F5.9°C 58% 0.8 mph SE1.3 kmh SE 4.7 mph7.6 kmh 29.76 in1007.8 mb 0.00 in0.0 mm 0.00 in0.0 mm 0.00 in0.0 mm
08:43 AM 56.1°F13.4°C 41.6°F5.3°C 58% 1.1 mph ENE1.8 kmh ENE 7.5 mph12.1 kmh 29.76 in1007.8 mb 0.00 in0.0 mm 0.00 in0.0 mm 0.00 in0.0 mm
08:38 AM 55.5°F13.1°C 41.9°F5.5°C 60% 1.6 mph NE2.6 kmh NE 7.5 mph12.1 kmh 29.76 in1007.8 mb 0.00 in0.0 mm 0.00 in0.0 mm 0.00 in0.0 mm
08:33 AM 55.5°F13.1°C 43.2°F6.2°C 63% 1.1 mph N1.8 kmh N 6.3 mph10.1 kmh 29.76 in1007.8 mb 0.00 in0.0 mm 0.00 in0.0 mm 0.00 in0.0 mm
08:28 AM 54.8°F12.7°C 43.8°F6.6°C 66% 1.9 mph N3.1 kmh N 6.3 mph10.1 kmh 29.76 in1007.8 mb 0.00 in0.0 mm 0.00 in0.0 mm 0.00 in0.0 mm
08:23 AM 53.6°F12.0°C 43.8°F6.6°C 69% 2.0 mph N3.2 kmh N 4.4 mph7.1 kmh 29.76 in1007.8 mb 0.00 in0.0 mm 0.00 in0.0 mm 0.00 in0.0 mm
08:18 AM 51.7°F10.9°C 43.4°F6.3°C 73% 1.5 mph E2.4 kmh E 3.1 mph5.0 kmh 29.76 in1007.8 mb 0.00 in0.0 mm 0.00 in0.0 mm 0.00 in0.0 mm
08:13 AM 49.4°F9.7°C 42.9°F6.1°C 78% 0.5 mph ENE0.8 kmh ENE 5.1 mph8.2 kmh 29.76 in1007.8 mb 0.00 in0.0 mm 0.00 in0.0 mm 0.00 in0.0 mm
08:08 AM 46.8°F8.2°C 41.3°F5.2°C 81% 2.7 mph NNE4.3 kmh NNE 5.1 mph8.2 kmh 29.76 in1007.8 mb 0.00 in0.0 mm 0.00 in0.0 mm 0.00 in0.0 mm
08:03 AM 43.3°F6.3°C 39.0°F3.9°C 85% 1.4 mph NE2.3 kmh NE 6.0 mph9.7 kmh 29.76 in1007.8 mb 0.00 in0.0 mm 0.00 in0.0 mm 0.00 in0.0 mm
07:58 AM 39.5°F4.2°C 35.3°F1.8°C 85% 3.5 mph NE5.6 kmh NE 6.0 mph9.7 kmh 29.76 in1007.8 mb 0.00 in0.0 mm 0.00 in0.0 mm 0.00 in0.0 mm
07:53 AM 38.4°F3.6°C 34.3°F1.3°C 85% 0.4 mph S0.6 kmh S 3.1 mph5.0 kmh 29.76 in1007.8 mb 0.00 in0.0 mm 0.00 in0.0 mm 0.00 in0.0 mm
07:48 AM 38.0°F3.3°C 33.9°F1.1°C 85% 1.3 mph NE2.1 kmh NE 3.1 mph5.0 kmh 29.76 in1007.8 mb 0.00 in0.0 mm 0.00 in0.0 mm 0.00 in0.0 mm
07:43 AM 37.7°F3.2°C 33.9°F1.1°C 86% 0.6 mph W1.0 kmh W 3.5 mph5.6 kmh 29.76 in1007.8 mb 0.00 in0.0 mm 0.00 in0.0 mm 0.00 in0.0 mm
07:38 AM 37.3°F2.9°C 33.5°F0.8°C 86% 1.7 mph NE2.7 kmh NE 3.5 mph5.6 kmh 29.76 in1007.8 mb 0.00 in0.0 mm 0.00 in0.0 mm 0.00 in0.0 mm
07:33 AM 37.2°F2.9°C 33.3°F0.7°C 86% 0.4 mph NNE0.6 kmh NNE 4.4 mph7.1 kmh 29.76 in1007.8 mb 0.00 in0.0 mm 0.00 in0.0 mm 0.00 in0.0 mm
07:28 AM 36.7°F2.6°C 33.1°F0.6°C 87% 0.9 mph NE1.4 kmh NE 4.7 mph7.6 kmh 29.76 in1007.8 mb 0.00 in0.0 mm 0.00 in0.0 mm 0.00 in0.0 mm
07:23 AM 36.3°F2.4°C 32.7°F0.4°C 87% 2.1 mph N3.4 kmh N 4.7 mph7.6 kmh 29.76 in1007.8 mb 0.00 in0.0 mm 0.00 in0.0 mm 0.00 in0.0 mm
07:17 AM 35.6°F2.0°C 32.1°F0.1°C 87% 0.9 mph NE1.4 kmh NE 3.1 mph5.0 kmh 29.76 in1007.8 mb 0.00 in0.0 mm 0.00 in0.0 mm 0.00 in0.0 mm
07:13 AM 35.3°F1.8°C 31.8°F-0.1°C 87% 1.0 mph NE1.6 kmh NE 1.9 mph3.1 kmh 29.76 in1007.8 mb 0.00 in0.0 mm 0.00 in0.0 mm 0.00 in0.0 mm
07:08 AM 34.7°F1.5°C 31.2°F-0.4°C 87% 1.1 mph NNE1.8 kmh NNE 1.9 mph3.1 kmh 29.76 in1007.8 mb 0.00 in0.0 mm 0.00 in0.0 mm 0.00 in0.0 mm
07:03 AM 34.0°F1.1°C 30.3°F-0.9°C 86% 0.6 mph NE1.0 kmh NE 1.2 mph1.9 kmh 29.76 in1007.8 mb 0.00 in0.0 mm 0.00 in0.0 mm 0.00 in0.0 mm
06:57 AM 33.7°F0.9°C 29.9°F-1.2°C 86% 0.6 mph 1.0 kmh 0.7 mph1.1 kmh 29.76 in1007.8 mb 0.00 in0.0 mm 0.00 in0.0 mm 0.00 in0.0 mm
06:53 AM 33.4°F0.8°C 29.6°F-1.3°C 86% 0.4 mph NNE0.6 kmh NNE 0.7 mph1.1 kmh 29.76 in1007.8 mb 0.00 in0.0 mm 0.00 in0.0 mm 0.00 in0.0 mm
06:48 AM 33.0°F0.6°C 29.2°F-1.6°C 86% 0.3 mph NE0.5 kmh NE 1.2 mph1.9 kmh 29.75 in1007.5 mb 0.00 in0.0 mm 0.00 in0.0 mm 0.00 in0.0 mm
06:42 AM 32.8°F0.4°C 29.0°F-1.7°C 86% 0.6 mph NE1.0 kmh NE 1.2 mph1.9 kmh 29.75 in1007.5 mb 0.00 in0.0 mm 0.00 in0.0 mm 0.00 in0.0 mm
06:37 AM 32.7°F0.4°C 28.9°F-1.7°C 86% Calm Calm -- 29.75 in1007.5 mb 0.00 in0.0 mm 0.00 in0.0 mm 0.00 in0.0 mm
06:33 AM 32.5°F0.3°C 28.7°F-1.8°C 86% Calm Calm -- 29.75 in1007.5 mb 0.00 in0.0 mm 0.00 in0.0 mm 0.00 in0.0 mm
06:27 AM 32.1°F0.1°C 28.1°F-2.2°C 85% Calm Calm -- 29.75 in1007.5 mb 0.00 in0.0 mm 0.00 in0.0 mm 0.00 in0.0 mm
06:22 AM 31.9°F-0.1°C 27.9°F-2.3°C 85% Calm Calm -- 29.75 in1007.5 mb 0.00 in0.0 mm 0.00 in0.0 mm 0.00 in0.0 mm
06:17 AM 31.9°F-0.1°C 27.9°F-2.3°C 85% Calm Calm -- 29.75 in1007.5 mb 0.00 in0.0 mm 0.00 in0.0 mm 0.00 in0.0 mm
06:12 AM 31.9°F-0.1°C 27.6°F-2.4°C 84% Calm Calm -- 29.75 in1007.5 mb 0.00 in0.0 mm 0.00 in0.0 mm 0.00 in0.0 mm
06:07 AM 31.9°F-0.1°C 27.6°F-2.4°C 84% Calm Calm -- 29.74 in1007.1 mb 0.00 in0.0 mm 0.00 in0.0 mm 0.00 in0.0 mm
06:02 AM 31.8°F-0.1°C 27.5°F-2.5°C 84% Calm Calm -- 29.75 in1007.5 mb 0.00 in0.0 mm 0.00 in0.0 mm 0.00 in0.0 mm
05:57 AM 31.8°F-0.1°C 27.5°F-2.5°C 84% Calm Calm -- 29.74 in1007.1 mb 0.00 in0.0 mm 0.00 in0.0 mm 0.00 in0.0 mm
05:52 AM 31.8°F-0.1°C 27.5°F-2.5°C 84% Calm Calm -- 29.75 in1007.5 mb 0.00 in0.0 mm 0.00 in0.0 mm 0.00 in0.0 mm
05:47 AM 31.9°F-0.1°C 27.3°F-2.6°C 83% Calm Calm -- 29.75 in1007.5 mb 0.00 in0.0 mm 0.00 in0.0 mm 0.00 in0.0 mm
05:42 AM 31.8°F-0.1°C 27.2°F-2.7°C 83% Calm Calm -- 29.74 in1007.1 mb 0.00 in0.0 mm 0.00 in0.0 mm 0.00 in0.0 mm
05:37 AM 31.9°F-0.1°C 27.3°F-2.6°C 83% Calm Calm -- 29.74 in1007.1 mb 0.00 in0.0 mm 0.00 in0.0 mm 0.00 in0.0 mm
05:32 AM 31.9°F-0.1°C 27.3°F-2.6°C 83% Calm Calm -- 29.74 in1007.1 mb 0.00 in0.0 mm 0.00 in0.0 mm 0.00 in0.0 mm
05:27 AM 32.1°F0.1°C 27.5°F-2.5°C 83% Calm Calm -- 29.74 in1007.1 mb 0.00 in0.0 mm 0.00 in0.0 mm 0.00 in0.0 mm
05:22 AM 32.1°F0.1°C 27.5°F-2.5°C 83% Calm Calm -- 29.74 in1007.1 mb 0.00 in0.0 mm 0.00 in0.0 mm 0.00 in0.0 mm
05:17 AM 32.3°F0.2°C 27.7°F-2.4°C 83% Calm Calm -- 29.74 in1007.1 mb 0.00 in0.0 mm 0.00 in0.0 mm 0.00 in0.0 mm
05:12 AM 32.3°F0.2°C 27.7°F-2.4°C 83% Calm Calm -- 29.74 in1007.1 mb 0.00 in0.0 mm 0.00 in0.0 mm 0.00 in0.0 mm
05:07 AM 32.3°F0.2°C 27.4°F-2.6°C 82% Calm Calm -- 29.74 in1007.1 mb 0.00 in0.0 mm 0.00 in0.0 mm 0.00 in0.0 mm
05:02 AM 32.5°F0.3°C 27.6°F-2.4°C 82% Calm Calm -- 29.74 in1007.1 mb 0.00 in0.0 mm 0.00 in0.0 mm 0.00 in0.0 mm
04:57 AM 32.5°F0.3°C 27.6°F-2.4°C 82% Calm Calm -- 29.74 in1007.1 mb 0.00 in0.0 mm 0.00 in0.0 mm 0.00 in0.0 mm
04:52 AM 32.5°F0.3°C 27.6°F-2.4°C 82% Calm Calm -- 29.74 in1007.1 mb 0.00 in0.0 mm 0.00 in0.0 mm 0.00 in0.0 mm
04:47 AM 32.5°F0.3°C 27.3°F-2.6°C 81% Calm Calm -- 29.74 in1007.1 mb 0.00 in0.0 mm 0.00 in0.0 mm 0.00 in0.0 mm
04:42 AM 32.7°F0.4°C 27.5°F-2.5°C 81% Calm Calm -- 29.74 in1007.1 mb 0.00 in0.0 mm 0.00 in0.0 mm 0.00 in0.0 mm
04:37 AM 32.8°F0.4°C 27.6°F-2.4°C 81% Calm Calm 1.2 mph1.9 kmh 29.74 in1007.1 mb 0.00 in0.0 mm 0.00 in0.0 mm 0.00 in0.0 mm
04:32 AM 33.0°F0.6°C 28.4°F-2.0°C 83% 0.3 mph NE0.5 kmh NE 1.2 mph1.9 kmh 29.74 in1007.1 mb 0.00 in0.0 mm 0.00 in0.0 mm 0.00 in0.0 mm
04:27 AM 32.8°F0.4°C 27.6°F-2.4°C 81% 0.4 mph NE0.6 kmh NE 0.7 mph1.1 kmh 29.74 in1007.1 mb 0.00 in0.0 mm 0.00 in0.0 mm 0.00 in0.0 mm
04:22 AM 32.8°F0.4°C 27.6°F-2.4°C 81% Calm Calm -- 29.74 in1007.1 mb 0.00 in0.0 mm 0.00 in0.0 mm 0.00 in0.0 mm
04:17 AM 33.0°F0.6°C 28.1°F-2.2°C 82% Calm Calm -- 29.74 in1007.1 mb 0.00 in0.0 mm 0.00 in0.0 mm 0.00 in0.0 mm
04:12 AM 33.2°F0.7°C 28.3°F-2.1°C 82% Calm Calm -- 29.74 in1007.1 mb 0.00 in0.0 mm 0.00 in0.0 mm 0.00 in0.0 mm
04:07 AM 33.2°F0.7°C 28.3°F-2.1°C 82% Calm Calm -- 29.74 in1007.1 mb 0.00 in0.0 mm 0.00 in0.0 mm 0.00 in0.0 mm
04:02 AM 33.6°F0.9°C 28.7°F-1.8°C 82% Calm Calm 0.3 mph0.5 kmh 29.74 in1007.1 mb 0.00 in0.0 mm 0.00 in0.0 mm 0.00 in0.0 mm
03:57 AM 33.7°F0.9°C 28.7°F-1.8°C 82% 0.3 mph W0.5 kmh W 0.3 mph0.5 kmh 29.74 in1007.1 mb 0.00 in0.0 mm 0.00 in0.0 mm 0.00 in0.0 mm
03:52 AM 33.7°F0.9°C 28.7°F-1.8°C 82% 0.3 mph W0.5 kmh W 0.7 mph1.1 kmh 29.74 in1007.1 mb 0.00 in0.0 mm 0.00 in0.0 mm 0.00 in0.0 mm
03:47 AM 33.7°F0.9°C 28.7°F-1.8°C 82% Calm Calm 0.7 mph1.1 kmh 29.74 in1007.1 mb 0.00 in0.0 mm 0.00 in0.0 mm 0.00 in0.0 mm
03:42 AM 33.9°F1.1°C 28.9°F-1.7°C 82% 0.6 mph WNW1.0 kmh WNW 0.7 mph1.1 kmh 29.74 in1007.1 mb 0.00 in0.0 mm 0.00 in0.0 mm 0.00 in0.0 mm
03:37 AM 33.9°F1.1°C 28.6°F-1.9°C 81% Calm Calm 0.7 mph1.1 kmh 29.74 in1007.1 mb 0.00 in0.0 mm 0.00 in0.0 mm 0.00 in0.0 mm
03:32 AM 33.9°F1.1°C 28.9°F-1.7°C 82% 0.3 mph W0.5 kmh W 0.7 mph1.1 kmh 29.74 in1007.1 mb 0.00 in0.0 mm 0.00 in0.0 mm 0.00 in0.0 mm
03:27 AM 34.0°F1.1°C 28.8°F-1.8°C 81% 0.3 mph W0.5 kmh W 0.7 mph1.1 kmh 29.73 in1006.8 mb 0.00 in0.0 mm 0.00 in0.0 mm 0.00 in0.0 mm
03:22 AM 34.2°F1.2°C 28.7°F-1.8°C 80% Calm Calm 0.7 mph1.1 kmh 29.73 in1006.8 mb 0.00 in0.0 mm 0.00 in0.0 mm 0.00 in0.0 mm
03:17 AM 34.2°F1.2°C 28.7°F-1.8°C 80% 0.5 mph W0.8 kmh W 0.7 mph1.1 kmh 29.73 in1006.8 mb 0.00 in0.0 mm 0.00 in0.0 mm 0.00 in0.0 mm
03:12 AM 34.4°F1.3°C 28.9°F-1.7°C 80% 0.3 mph WSW0.5 kmh WSW 0.7 mph1.1 kmh 29.73 in1006.8 mb 0.00 in0.0 mm 0.00 in0.0 mm 0.00 in0.0 mm
03:07 AM 34.5°F1.4°C 29.0°F-1.7°C 80% 0.4 mph WSW0.6 kmh WSW 0.7 mph1.1 kmh 29.73 in1006.8 mb 0.00 in0.0 mm 0.00 in0.0 mm 0.00 in0.0 mm
03:02 AM 34.5°F1.4°C 28.4°F-2.0°C 78% 0.3 mph WNW0.5 kmh WNW 0.3 mph0.5 kmh 29.73 in1006.8 mb 0.00 in0.0 mm 0.00 in0.0 mm 0.00 in0.0 mm
02:57 AM 34.7°F1.5°C 28.6°F-1.9°C 78% Calm Calm -- 29.73 in1006.8 mb 0.00 in0.0 mm 0.00 in0.0 mm 0.00 in0.0 mm
02:52 AM 34.9°F1.6°C 28.8°F-1.8°C 78% Calm Calm 0.3 mph0.5 kmh 29.73 in1006.8 mb 0.00 in0.0 mm 0.00 in0.0 mm 0.00 in0.0 mm
02:47 AM 34.9°F1.6°C 28.8°F-1.8°C 78% 0.3 mph WNW0.5 kmh WNW 0.3 mph0.5 kmh 29.73 in1006.8 mb 0.00 in0.0 mm 0.00 in0.0 mm 0.00 in0.0 mm
02:42 AM 34.9°F1.6°C 28.5°F-1.9°C 77% Calm Calm -- 29.73 in1006.8 mb 0.00 in0.0 mm 0.00 in0.0 mm 0.00 in0.0 mm
02:37 AM 35.3°F1.8°C 28.9°F-1.7°C 77% Calm Calm -- 29.73 in1006.8 mb 0.00 in0.0 mm 0.00 in0.0 mm 0.00 in0.0 mm
02:32 AM 35.3°F1.8°C 28.9°F-1.7°C 77% Calm Calm -- 29.73 in1006.8 mb 0.00 in0.0 mm 0.00 in0.0 mm 0.00 in0.0 mm
02:27 AM 35.4°F1.9°C 28.6°F-1.9°C 76% Calm Calm -- 29.73 in1006.8 mb 0.00 in0.0 mm 0.00 in0.0 mm 0.00 in0.0 mm
02:22 AM 35.6°F2.0°C 28.8°F-1.8°C 76% Calm Calm 0.7 mph1.1 kmh 29.73 in1006.8 mb 0.00 in0.0 mm 0.00 in0.0 mm 0.00 in0.0 mm
02:17 AM 35.8°F2.1°C 29.0°F-1.7°C 76% 0.3 mph W0.5 kmh W 0.7 mph1.1 kmh 29.74 in1007.1 mb 0.00 in0.0 mm 0.00 in0.0 mm 0.00 in0.0 mm
02:12 AM 35.8°F2.1°C 29.3°F-1.5°C 77% 0.3 mph W0.5 kmh W 0.3 mph0.5 kmh 29.73 in1006.8 mb 0.00 in0.0 mm 0.00 in0.0 mm 0.00 in0.0 mm
02:07 AM 36.0°F2.2°C 29.5°F-1.4°C 77% Calm Calm -- 29.73 in1006.8 mb 0.00 in0.0 mm 0.00 in0.0 mm 0.00 in0.0 mm
02:02 AM 36.0°F2.2°C 29.2°F-1.6°C 76% Calm Calm -- 29.73 in1006.8 mb 0.00 in0.0 mm 0.00 in0.0 mm 0.00 in0.0 mm
01:57 AM 36.2°F2.3°C 29.4°F-1.4°C 76% Calm Calm -- 29.73 in1006.8 mb 0.00 in0.0 mm 0.00 in0.0 mm 0.00 in0.0 mm
01:52 AM 36.3°F2.4°C 29.2°F-1.6°C 75% Calm Calm -- 29.73 in1006.8 mb 0.00 in0.0 mm 0.00 in0.0 mm 0.00 in0.0 mm
01:47 AM 36.7°F2.6°C 29.5°F-1.4°C 75% Calm Calm -- 29.73 in1006.8 mb 0.00 in0.0 mm 0.00 in0.0 mm 0.00 in0.0 mm
01:42 AM 36.7°F2.6°C 29.2°F-1.6°C 74% Calm Calm -- 29.73 in1006.8 mb 0.00 in0.0 mm 0.00 in0.0 mm 0.00 in0.0 mm
01:37 AM 36.9°F2.7°C 29.4°F-1.4°C 74% Calm Calm -- 29.73 in1006.8 mb 0.00 in0.0 mm 0.00 in0.0 mm 0.00 in0.0 mm
01:32 AM 37.1°F2.8°C 29.6°F-1.3°C 74% Calm Calm -- 29.73 in1006.8 mb 0.00 in0.0 mm 0.00 in0.0 mm 0.00 in0.0 mm
01:27 AM 37.3°F2.9°C 29.5°F-1.4°C 73% Calm Calm -- 29.73 in1006.8 mb 0.00 in0.0 mm 0.00 in0.0 mm 0.00 in0.0 mm
01:22 AM 37.5°F3.1°C 29.7°F-1.3°C 73% Calm Calm -- 29.73 in1006.8 mb 0.00 in0.0 mm 0.00 in0.0 mm 0.00 in0.0 mm
01:17 AM 37.7°F3.2°C 29.9°F-1.2°C 73% Calm Calm -- 29.73 in1006.8 mb 0.00 in0.0 mm 0.00 in0.0 mm 0.00 in0.0 mm
01:12 AM 37.9°F3.3°C 29.8°F-1.2°C 72% Calm Calm 0.3 mph0.5 kmh 29.73 in1006.8 mb 0.00 in0.0 mm 0.00 in0.0 mm 0.00 in0.0 mm
01:07 AM 38.2°F3.4°C 30.1°F-1.1°C 72% Calm Calm 0.3 mph0.5 kmh 29.73 in1006.8 mb 0.00 in0.0 mm 0.00 in0.0 mm 0.00 in0.0 mm
01:02 AM 38.6°F3.7°C 30.4°F-0.9°C 72% Calm Calm 0.3 mph0.5 kmh 29.73 in1006.8 mb 0.00 in0.0 mm 0.00 in0.0 mm 0.00 in0.0 mm
12:57 AM 38.8°F3.8°C 30.3°F-0.9°C 71% 0.3 mph WSW0.5 kmh WSW 0.3 mph0.5 kmh 29.73 in1006.8 mb 0.00 in0.0 mm 0.00 in0.0 mm 0.00 in0.0 mm
12:52 AM 38.8°F3.8°C 30.3°F-0.9°C 71% Calm Calm 0.3 mph0.5 kmh 29.72 in1006.4 mb 0.00 in0.0 mm 0.00 in0.0 mm 0.00 in0.0 mm
12:47 AM 38.8°F3.8°C 30.3°F-0.9°C 71% 0.3 mph SSE0.5 kmh SSE 0.3 mph0.5 kmh 29.72 in1006.4 mb 0.00 in0.0 mm 0.00 in0.0 mm 0.00 in0.0 mm
12:42 AM 39.1°F3.9°C 30.2°F-1.0°C 70% Calm Calm -- 29.72 in1006.4 mb 0.00 in0.0 mm 0.00 in0.0 mm 0.00 in0.0 mm
12:37 AM 39.5°F4.2°C 30.6°F-0.8°C 70% Calm Calm -- 29.72 in1006.4 mb 0.00 in0.0 mm 0.00 in0.0 mm 0.00 in0.0 mm
12:32 AM 39.8°F4.3°C 30.9°F-0.6°C 70% Calm Calm -- 29.72 in1006.4 mb 0.00 in0.0 mm 0.00 in0.0 mm 0.00 in0.0 mm
12:27 AM 40.2°F4.6°C 30.9°F-0.6°C 69% Calm Calm -- 29.72 in1006.4 mb 0.00 in0.0 mm 0.00 in0.0 mm 0.00 in0.0 mm
12:22 AM 40.4°F4.7°C 31.4°F-0.3°C 70% Calm Calm 0.7 mph1.1 kmh 29.72 in1006.4 mb 0.00 in0.0 mm 0.00 in0.0 mm 0.00 in0.0 mm
12:17 AM 40.5°F4.7°C 31.3°F-0.4°C 69% Calm Calm 0.7 mph1.1 kmh 29.71 in1006.1 mb 0.00 in0.0 mm 0.00 in0.0 mm 0.00 in0.0 mm
12:12 AM 40.8°F4.9°C 31.9°F-0.1°C 70% 0.6 mph S1.0 kmh S 1.9 mph3.1 kmh 29.72 in1006.4 mb 0.00 in0.0 mm 0.00 in0.0 mm 0.00 in0.0 mm
12:07 AM 41.0°F5.0°C 32.1°F0.1°C 70% 0.4 mph SSE0.6 kmh SSE 1.9 mph3.1 kmh 29.71 in1006.1 mb 0.00 in0.0 mm 0.00 in0.0 mm 0.00 in0.0 mm
12:02 AM 41.2°F5.1°C 32.3°F0.2°C 70% 0.9 mph SE1.4 kmh SE 1.9 mph3.1 kmh 29.71 in1006.1 mb 0.00 in0.0 mm 0.00 in0.0 mm 0.00 in0.0 mm